createdAt,value
2023-05-09T00:00:20.126Z,2.850
2023-05-09T00:01:33.159Z,3.850
2023-05-09T00:02:28.329Z,4.000
2023-05-09T00:03:24.721Z,2.950
2023-05-09T00:04:34.551Z,4.450
2023-05-09T00:05:28.393Z,3.500
2023-05-09T00:06:27.600Z,3.100
2023-05-09T00:07:20.972Z,3.050
2023-05-09T00:08:30.525Z,2.600
2023-05-09T00:09:29.137Z,3.750
2023-05-09T00:10:22.861Z,2.950
2023-05-09T00:11:33.101Z,3.800
2023-05-09T00:12:29.834Z,3.550
2023-05-09T00:13:24.917Z,3.300
2023-05-09T00:14:22.546Z,4.000
2023-05-09T00:15:22.560Z,4.300
2023-05-09T00:16:26.464Z,2.650
2023-05-09T00:17:25.367Z,3.200
2023-05-09T00:18:34.621Z,3.500
2023-05-09T00:19:28.582Z,3.600
2023-05-09T00:20:25.579Z,3.900
2023-05-09T00:21:20.831Z,2.800
2023-05-09T00:22:20.916Z,3.200
2023-05-09T00:23:26.343Z,3.050
2023-05-09T00:24:22.438Z,3.700
2023-05-09T00:25:34.714Z,2.950
2023-05-09T00:26:28.928Z,3.000
2023-05-09T00:27:26.110Z,3.200
2023-05-09T00:28:21.796Z,4.500
2023-05-09T00:29:23.667Z,3.300
2023-05-09T00:30:22.860Z,2.850
2023-05-09T00:31:22.710Z,2.750
2023-05-09T00:32:33.539Z,3.250
2023-05-09T00:33:30.130Z,2.300
2023-05-09T00:34:24.625Z,2.200
2023-05-09T00:35:21.882Z,2.250
2023-05-09T00:36:27.813Z,2.800
2023-05-09T00:37:20.477Z,2.600
2023-05-09T00:38:22.413Z,3.150
2023-05-09T00:39:32.958Z,3.200
2023-05-09T00:40:29.762Z,2.900
2023-05-09T00:41:25.153Z,3.450
2023-05-09T00:42:20.832Z,3.800
2023-05-09T00:43:32.522Z,2.950
2023-05-09T00:44:26.738Z,2.500
2023-05-09T00:45:23.409Z,2.800
2023-05-09T00:46:23.992Z,3.250
2023-05-09T00:47:28.718Z,3.100
2023-05-09T00:48:25.671Z,3.100
2023-05-09T00:49:22.262Z,2.300
2023-05-09T00:50:31.068Z,3.200
2023-05-09T00:51:29.657Z,2.800
2023-05-09T00:52:23.525Z,3.500
2023-05-09T00:53:20.420Z,2.500
2023-05-09T00:54:29.458Z,2.400
2023-05-09T00:55:25.474Z,2.350
2023-05-09T00:56:22.334Z,3.500
2023-05-09T00:57:20.598Z,2.200
2023-05-09T00:58:28.638Z,3.000
2023-05-09T00:59:26.577Z,3.400
2023-05-09T01:00:26.317Z,3.750
2023-05-09T01:01:31.601Z,2.600
2023-05-09T01:02:48.514Z,3.100
2023-05-09T01:03:36.099Z,2.700
2023-05-09T01:09:48.440Z,2.600
2023-05-09T01:10:22.356Z,2.500
2023-05-09T01:11:31.181Z,2.500
2023-05-09T01:12:27.625Z,2.350
2023-05-09T01:13:22.833Z,2.250
2023-05-09T01:14:27.822Z,3.400
2023-05-09T01:15:20.733Z,2.750
2023-05-09T01:16:21.400Z,2.600
2023-05-09T01:17:20.959Z,2.800
2023-05-09T01:18:31.268Z,3.000
2023-05-09T01:19:28.464Z,3.350
2023-05-09T01:20:22.790Z,2.400
2023-05-09T01:21:33.117Z,2.500
2023-05-09T01:22:30.832Z,3.700
2023-05-09T01:23:24.718Z,3.900
2023-05-09T01:24:21.418Z,2.450
2023-05-09T01:25:33.347Z,3.100
2023-05-09T01:26:21.844Z,2.600
2023-05-09T01:27:23.944Z,3.500
2023-05-09T01:28:33.085Z,3.150
2023-05-09T01:29:28.786Z,2.900
2023-05-09T01:30:26.775Z,3.850
2023-05-09T01:31:20.527Z,2.700
2023-05-09T01:32:31.009Z,3.550
2023-05-09T01:33:22.769Z,2.600
2023-05-09T01:34:22.754Z,2.850
2023-05-09T01:35:32.869Z,3.500
2023-05-09T01:36:35.817Z,2.600
2023-05-09T01:37:26.211Z,2.900
2023-05-09T01:38:25.197Z,2.850
2023-05-09T01:39:31.844Z,3.200
2023-05-09T01:40:28.474Z,3.200
2023-05-09T01:41:23.482Z,3.600
2023-05-09T01:42:34.317Z,3.100
2023-05-09T01:43:29.014Z,3.000
2023-05-09T01:44:20.673Z,3.000
2023-05-09T01:45:25.312Z,4.400
2023-05-09T01:46:20.902Z,3.100
2023-05-09T01:47:29.349Z,4.700
2023-05-09T01:48:23.202Z,3.950
2023-05-09T01:49:34.305Z,3.950
2023-05-09T01:50:25.289Z,2.600
2023-05-09T01:51:27.159Z,3.200
2023-05-09T01:52:21.104Z,3.400
2023-05-09T01:53:20.906Z,3.550
2023-05-09T01:54:27.074Z,3.950
2023-05-09T01:55:23.542Z,3.700
2023-05-09T01:56:34.549Z,2.850
2023-05-09T01:57:29.777Z,3.300
2023-05-09T01:58:26.750Z,4.100
2023-05-09T01:59:21.176Z,3.500
2023-05-09T02:00:30.999Z,3.700
2023-05-09T02:01:22.682Z,3.250
2023-05-09T02:02:23.263Z,3.200
2023-05-09T02:03:32.642Z,3.500
2023-05-09T02:04:30.518Z,2.600
2023-05-09T02:05:25.452Z,3.850
2023-05-09T02:06:21.862Z,4.200
2023-05-09T02:07:34.809Z,3.750
2023-05-09T02:08:21.870Z,3.100
2023-05-09T02:09:23.051Z,2.950
2023-05-09T02:10:32.700Z,3.200
2023-05-09T02:11:31.152Z,2.750
2023-05-09T02:12:25.470Z,2.900
2023-05-09T02:13:22.779Z,2.800
2023-05-09T02:14:34.458Z,3.600
2023-05-09T02:15:30.688Z,3.500
2023-05-09T02:16:23.036Z,3.250
2023-05-09T02:17:33.334Z,3.800
2023-05-09T02:18:25.804Z,4.400
2023-05-09T02:19:25.077Z,3.200
2023-05-09T02:20:24.879Z,4.200
2023-05-09T02:21:30.741Z,3.250
2023-05-09T02:22:27.569Z,4.000
2023-05-09T02:23:23.069Z,4.200
2023-05-09T02:24:19.605Z,3.100
2023-05-09T02:25:28.466Z,3.250
2023-05-09T02:26:26.153Z,3.900
2023-05-09T02:27:21.602Z,4.300
2023-05-09T02:28:30.874Z,4.200
2023-05-09T02:29:20.994Z,3.500
2023-05-09T02:30:29.175Z,3.250
2023-05-09T02:31:23.471Z,4.200
2023-05-09T02:32:31.124Z,3.500
2023-05-09T02:33:40.787Z,3.650
2023-05-09T02:34:20.901Z,3.500
2023-05-09T02:35:27.055Z,3.600
2023-05-09T02:36:26.376Z,3.800
2023-05-09T02:37:24.157Z,2.600
2023-05-09T02:38:27.658Z,3.550
2023-05-09T02:39:22.361Z,3.200
2023-05-09T02:40:25.285Z,3.300
2023-05-09T02:41:22.180Z,2.900
2023-05-09T02:42:31.847Z,4.250
2023-05-09T02:43:27.223Z,4.100
2023-05-09T02:44:24.119Z,3.100
2023-05-09T02:45:33.119Z,4.050
2023-05-09T02:46:26.436Z,4.800
2023-05-09T02:47:25.263Z,3.600
2023-05-09T02:48:20.924Z,4.300
2023-05-09T02:49:31.407Z,3.250
2023-05-09T02:50:28.304Z,3.400
2023-05-09T02:51:22.985Z,4.500
2023-05-09T02:52:29.845Z,3.500
2023-05-09T02:53:28.594Z,2.950
2023-05-09T02:54:23.399Z,3.400
2023-05-09T02:55:20.703Z,3.900
2023-05-09T02:56:25.045Z,3.150
2023-05-09T02:57:21.104Z,4.500
2023-05-09T02:58:22.886Z,2.750
2023-05-09T02:59:41.446Z,3.900
2023-05-09T03:00:32.367Z,4.900
2023-05-09T03:01:25.645Z,3.300
2023-05-09T03:02:20.919Z,3.200
2023-05-09T03:03:26.276Z,3.800
2023-05-09T03:04:26.800Z,3.350
2023-05-09T03:05:22.876Z,3.400
2023-05-09T03:06:45.639Z,4.400
2023-05-09T03:07:22.925Z,4.000
2023-05-09T03:08:31.346Z,4.050
2023-05-09T03:09:23.208Z,3.800
2023-05-09T03:10:45.159Z,3.850
2023-05-09T03:11:26.621Z,3.750
2023-05-09T03:12:24.685Z,4.000
2023-05-09T03:13:35.715Z,3.550
2023-05-09T03:14:22.440Z,2.500
2023-05-09T03:15:24.625Z,2.900
2023-05-09T03:16:22.716Z,2.800
2023-05-09T03:17:21.839Z,3.350
2023-05-09T03:18:21.345Z,3.700
2023-05-09T03:19:22.773Z,3.300
2023-05-09T03:20:28.759Z,3.450
2023-05-09T03:21:39.859Z,3.000
2023-05-09T03:22:25.928Z,3.000
2023-05-09T03:23:22.813Z,3.600
2023-05-09T03:24:23.073Z,3.150
2023-05-09T03:25:26.532Z,3.500
2023-05-09T03:26:23.777Z,3.000
2023-05-09T03:27:32.906Z,3.350
2023-05-09T03:28:30.500Z,2.600
2023-05-09T03:29:24.909Z,2.600
2023-05-09T03:30:22.816Z,4.450
2023-05-09T03:31:28.884Z,3.150
2023-05-09T03:32:20.500Z,3.150
2023-05-09T03:33:23.902Z,4.500
2023-05-09T03:34:36.149Z,3.450
2023-05-09T03:35:36.478Z,3.500
2023-05-09T03:36:25.699Z,3.000
2023-05-09T03:37:29.863Z,3.600
2023-05-09T03:38:31.406Z,3.750
2023-05-09T03:39:27.893Z,3.800
2023-05-09T03:40:22.609Z,3.700
2023-05-09T03:41:34.981Z,3.350
2023-05-09T03:42:20.648Z,3.600
2023-05-09T03:43:35.556Z,3.900
2023-05-09T03:44:21.691Z,3.800
2023-05-09T03:45:33.774Z,3.950
2023-05-09T03:46:28.881Z,3.600
2023-05-09T03:47:22.812Z,3.400
2023-05-09T03:48:25.442Z,4.200
2023-05-09T03:49:31.020Z,3.950
2023-05-09T03:50:27.462Z,3.750
2023-05-09T03:51:21.718Z,4.100
2023-05-09T03:52:32.688Z,3.600
2023-05-09T03:53:26.845Z,4.100
2023-05-09T03:54:27.621Z,4.100
2023-05-09T03:55:33.196Z,4.350
2023-05-09T03:56:29.543Z,3.300
2023-05-09T03:57:25.944Z,3.950
2023-05-09T03:58:20.834Z,4.000
2023-05-09T03:59:25.042Z,3.450
2023-05-09T04:00:26.829Z,4.200
2023-05-09T04:01:27.756Z,3.500
2023-05-09T04:02:22.366Z,3.450
2023-05-09T04:03:30.769Z,4.300
2023-05-09T04:04:34.068Z,4.700
2023-05-09T04:05:29.935Z,3.700
2023-05-09T04:06:30.762Z,4.250
2023-05-09T04:07:26.769Z,4.700
2023-05-09T04:08:22.862Z,3.650
2023-05-09T04:09:26.989Z,4.200
2023-05-09T04:10:21.339Z,3.700
2023-05-09T04:11:25.185Z,4.000
2023-05-09T04:12:21.569Z,4.400
2023-05-09T04:13:31.776Z,5.350
2023-05-09T04:14:28.179Z,4.850
2023-05-09T04:15:22.793Z,5.000
2023-05-09T04:16:26.598Z,4.350
2023-05-09T04:17:23.772Z,4.550
2023-05-09T04:18:25.435Z,3.400
2023-05-09T04:19:22.420Z,4.850
2023-05-09T04:20:30.946Z,4.550
2023-05-09T04:21:27.660Z,3.600
2023-05-09T04:22:23.149Z,4.200
2023-05-09T04:23:21.598Z,3.850
2023-05-09T04:24:28.968Z,5.000
2023-05-09T04:25:20.865Z,4.350
2023-05-09T04:26:21.863Z,6.900
2023-05-09T04:27:23.683Z,4.200
2023-05-09T04:28:27.589Z,5.050
2023-05-09T04:29:23.341Z,5.200
2023-05-09T04:30:24.911Z,4.900
2023-05-09T04:31:32.681Z,5.400
2023-05-09T04:32:24.993Z,5.100
2023-05-09T04:33:26.757Z,5.650
2023-05-09T04:34:21.156Z,4.400
2023-05-09T04:35:26.584Z,4.400
2023-05-09T04:36:24.231Z,3.900
2023-05-09T04:37:27.765Z,4.700
2023-05-09T04:38:28.807Z,5.400
2023-05-09T04:39:24.857Z,6.500
2023-05-09T04:40:25.468Z,5.100
2023-05-09T04:41:23.216Z,5.050
2023-05-09T04:42:28.594Z,5.200
2023-05-09T04:43:22.912Z,6.150
2023-05-09T04:44:23.861Z,6.400
2023-05-09T04:45:29.754Z,5.400
2023-05-09T04:46:25.828Z,5.500
2023-05-09T04:47:22.480Z,5.500
2023-05-09T04:48:31.224Z,5.450
2023-05-09T04:49:27.243Z,4.200
2023-05-09T04:50:23.603Z,5.000
2023-05-09T04:51:34.585Z,4.250
2023-05-09T04:52:20.763Z,5.800
2023-05-09T04:53:24.737Z,6.150
2023-05-09T04:54:22.583Z,5.300
2023-05-09T04:55:23.623Z,8.200
2023-05-09T04:56:28.208Z,6.450
2023-05-09T04:57:22.534Z,6.900
2023-05-09T04:58:33.267Z,7.700
2023-05-09T04:59:30.636Z,9.150
2023-05-09T05:00:25.225Z,6.800
2023-05-09T05:01:21.113Z,6.250
2023-05-09T05:02:27.468Z,6.100
2023-05-09T05:03:20.235Z,4.400
2023-05-09T05:04:24.514Z,5.150
2023-05-09T05:05:35.944Z,4.300
2023-05-09T05:06:29.078Z,5.400
2023-05-09T05:07:27.377Z,5.650
2023-05-09T05:08:20.984Z,7.000
2023-05-09T05:09:31.565Z,5.300
2023-05-09T05:10:27.207Z,5.750
2023-05-09T05:11:23.335Z,8.900
2023-05-09T05:12:24.648Z,8.550
2023-05-09T05:13:30.081Z,7.150
2023-05-09T05:14:25.169Z,6.200
2023-05-09T05:15:22.615Z,7.250
2023-05-09T05:16:33.248Z,6.700
2023-05-09T05:17:29.118Z,6.700
2023-05-09T05:18:23.256Z,6.200
2023-05-09T05:19:34.317Z,5.400
2023-05-09T05:20:29.872Z,5.000
2023-05-09T05:21:26.976Z,6.400
2023-05-09T05:22:20.975Z,5.100
2023-05-09T05:23:22.317Z,6.500
2023-05-09T05:24:28.077Z,6.700
2023-05-09T05:25:27.662Z,7.200
2023-05-09T05:26:34.372Z,5.400
2023-05-09T05:27:28.975Z,5.000
2023-05-09T05:28:24.736Z,6.650
2023-05-09T05:29:21.757Z,9.100
2023-05-09T05:30:34.359Z,6.200
2023-05-09T05:31:27.198Z,5.300
2023-05-09T05:32:24.801Z,6.450
2023-05-09T05:33:23.145Z,5.100
2023-05-09T05:34:30.838Z,5.600
2023-05-09T05:35:26.143Z,4.800
2023-05-09T05:36:21.154Z,5.900
2023-05-09T05:37:30.831Z,5.400
2023-05-09T05:38:35.599Z,5.150
2023-05-09T05:39:23.103Z,4.600
2023-05-09T05:40:23.418Z,4.600
2023-05-09T05:41:20.540Z,4.450
2023-05-09T05:42:25.077Z,5.800
2023-05-09T05:43:22.927Z,6.000
2023-05-09T05:44:32.833Z,4.600
2023-05-09T05:45:26.939Z,6.800
2023-05-09T05:46:24.690Z,5.600
2023-05-09T05:47:34.021Z,4.850
2023-05-09T05:48:24.634Z,6.900
2023-05-09T05:49:26.488Z,5.500
2023-05-09T05:50:21.934Z,6.000
2023-05-09T05:51:32.707Z,4.850
2023-05-09T05:52:26.450Z,5.200
2023-05-09T05:53:22.992Z,4.500
2023-05-09T05:54:37.804Z,4.300
2023-05-09T05:55:30.005Z,4.800
2023-05-09T05:56:22.527Z,5.450
2023-05-09T05:57:23.253Z,3.900
2023-05-09T05:58:32.542Z,5.250
2023-05-09T05:59:27.986Z,4.300
2023-05-09T06:00:24.822Z,3.800
2023-05-09T06:01:33.142Z,4.000
2023-05-09T06:02:33.023Z,5.700
2023-05-09T06:03:30.660Z,5.150
2023-05-09T06:04:20.931Z,4.600
2023-05-09T06:05:30.947Z,5.600
2023-05-09T06:06:28.816Z,4.400
2023-05-09T06:07:23.415Z,5.500
2023-05-09T06:08:21.544Z,5.300
2023-05-09T06:09:29.321Z,6.400
2023-05-09T06:10:29.958Z,6.700
2023-05-09T06:11:24.830Z,5.000
2023-05-09T06:12:32.834Z,4.700
2023-05-09T06:13:27.174Z,4.900
2023-05-09T06:14:27.889Z,6.000
2023-05-09T06:15:33.207Z,6.600
2023-05-09T06:16:29.240Z,4.900
2023-05-09T06:17:27.221Z,5.350
2023-05-09T06:18:21.282Z,5.150
2023-05-09T06:19:21.929Z,4.700
2023-05-09T06:20:27.307Z,4.800
2023-05-09T06:21:23.177Z,4.200
2023-05-09T06:22:26.150Z,3.700
2023-05-09T06:23:32.751Z,5.250
2023-05-09T06:24:35.938Z,5.700
2023-05-09T06:25:22.856Z,4.500
2023-05-09T06:26:23.183Z,4.200
2023-05-09T06:27:27.108Z,4.600
2023-05-09T06:28:25.090Z,4.600
2023-05-09T06:29:32.953Z,5.100
2023-05-09T06:30:48.202Z,6.300
2023-05-09T06:31:29.329Z,5.800
2023-05-09T06:32:21.187Z,5.900
2023-05-09T06:33:25.712Z,6.900
2023-05-09T06:34:21.958Z,6.200
2023-05-09T06:35:23.153Z,5.500
2023-05-09T06:36:19.579Z,5.450
2023-05-09T06:37:29.049Z,3.300
2023-05-09T06:38:26.382Z,5.100
2023-05-09T06:39:21.832Z,5.200
2023-05-09T06:40:32.993Z,6.300
2023-05-09T06:41:22.954Z,4.550
2023-05-09T06:42:24.638Z,4.700
2023-05-09T06:43:35.552Z,6.250
2023-05-09T06:44:29.153Z,6.700
2023-05-09T06:45:26.997Z,5.700
2023-05-09T06:46:21.152Z,6.150
2023-05-09T06:47:33.698Z,5.500
2023-05-09T06:48:30.123Z,6.500
2023-05-09T06:49:19.359Z,7.900
2023-05-09T06:50:33.178Z,6.250
2023-05-09T06:51:30.402Z,6.400
2023-05-09T06:52:24.981Z,5.200
2023-05-09T06:53:23.564Z,11.100
2023-05-09T06:54:31.184Z,6.600
2023-05-09T06:55:26.979Z,8.000
2023-05-09T06:56:24.459Z,7.250
2023-05-09T06:57:20.672Z,8.200
2023-05-09T06:58:29.532Z,4.400
2023-05-09T06:59:27.014Z,5.500
2023-05-09T07:00:21.746Z,5.600
2023-05-09T07:01:31.779Z,5.200
2023-05-09T07:02:29.361Z,4.300
2023-05-09T07:03:22.927Z,4.100
2023-05-09T07:04:21.746Z,5.350
2023-05-09T07:05:32.968Z,6.900
2023-05-09T07:06:25.203Z,4.100
2023-05-09T07:07:22.915Z,5.250
2023-05-09T07:08:33.720Z,5.800
2023-05-09T07:09:28.323Z,8.200
2023-05-09T07:10:23.075Z,5.150
2023-05-09T07:11:25.531Z,7.450
2023-05-09T07:12:22.913Z,5.100
2023-05-09T07:13:27.290Z,4.600
2023-05-09T07:14:21.077Z,4.800
2023-05-09T07:15:41.189Z,4.000
2023-05-09T07:16:31.961Z,4.800
2023-05-09T07:17:24.286Z,6.500
2023-05-09T07:18:28.368Z,5.250
2023-05-09T07:19:21.333Z,4.950
2023-05-09T07:20:25.303Z,5.200
2023-05-09T07:21:21.410Z,3.900
2023-05-09T07:22:37.442Z,6.050
2023-05-09T07:23:27.974Z,5.200
2023-05-09T07:24:24.488Z,5.200
2023-05-09T07:25:34.429Z,5.500
2023-05-09T07:26:26.374Z,5.600
2023-05-09T07:27:25.713Z,5.700
2023-05-09T07:28:21.302Z,5.400
2023-05-09T07:29:31.050Z,5.000
2023-05-09T07:30:28.710Z,6.400
2023-05-09T07:31:23.677Z,4.200
2023-05-09T07:32:32.987Z,5.300
2023-05-09T07:33:30.638Z,6.200
2023-05-09T07:34:27.485Z,4.200
2023-05-09T07:35:21.982Z,4.850
2023-05-09T07:36:34.834Z,6.250
2023-05-09T07:37:27.212Z,5.700
2023-05-09T07:38:24.939Z,4.300
2023-05-09T07:39:36.953Z,5.000
2023-05-09T07:40:29.048Z,3.700
2023-05-09T07:41:28.242Z,5.250
2023-05-09T07:42:22.314Z,3.800
2023-05-09T07:43:31.061Z,4.400
2023-05-09T07:44:27.584Z,3.900
2023-05-09T07:45:25.218Z,3.500
2023-05-09T07:46:34.432Z,3.350
2023-05-09T07:47:29.013Z,1.900
2023-05-09T07:48:25.068Z,3.100
2023-05-09T07:49:23.773Z,2.900
2023-05-09T07:50:23.489Z,3.150
2023-05-09T07:51:27.244Z,3.050
2023-05-09T07:52:24.640Z,2.600
2023-05-09T07:53:35.328Z,3.000
2023-05-09T07:54:28.959Z,3.000
2023-05-09T07:55:25.047Z,2.400
2023-05-09T07:56:21.111Z,2.700
2023-05-09T07:57:21.943Z,2.800
2023-05-09T07:58:28.745Z,3.600
2023-05-09T07:59:23.073Z,2.450
2023-05-09T08:00:34.972Z,2.600
2023-05-09T08:01:30.219Z,2.600
2023-05-09T08:02:26.932Z,3.200
2023-05-09T08:03:21.257Z,2.300
2023-05-09T08:04:24.568Z,2.850
2023-05-09T08:05:23.201Z,2.450
2023-05-09T08:06:22.998Z,3.900
2023-05-09T08:07:36.101Z,3.850
2023-05-09T08:08:29.483Z,2.500
2023-05-09T08:09:26.456Z,2.800
2023-05-09T08:10:21.782Z,3.200
2023-05-09T08:11:31.368Z,3.900
2023-05-09T08:12:23.448Z,3.450
2023-05-09T08:13:22.888Z,2.650
2023-05-09T08:14:33.252Z,3.900
2023-05-09T08:15:30.080Z,3.300
2023-05-09T08:16:26.157Z,3.100
2023-05-09T08:17:22.716Z,3.200
2023-05-09T08:18:32.360Z,2.600
2023-05-09T08:19:27.796Z,3.300
2023-05-09T08:20:25.706Z,2.950
2023-05-09T08:21:34.902Z,3.300
2023-05-09T08:22:29.979Z,2.900
2023-05-09T08:23:27.013Z,3.100
2023-05-09T08:24:21.566Z,2.900
2023-05-09T08:25:31.215Z,4.500
2023-05-09T08:26:31.240Z,2.200
2023-05-09T08:27:23.415Z,2.750
2023-05-09T08:28:21.600Z,3.600
2023-05-09T08:29:30.482Z,2.800
2023-05-09T08:30:25.291Z,2.750
2023-05-09T08:31:22.544Z,3.400
2023-05-09T08:32:32.839Z,3.100
2023-05-09T08:33:26.998Z,3.500
2023-05-09T08:34:21.675Z,3.300
2023-05-09T08:35:19.480Z,3.900
2023-05-09T08:36:29.195Z,3.250
2023-05-09T08:37:26.810Z,2.900
2023-05-09T08:38:21.564Z,2.600
2023-05-09T08:39:31.149Z,3.000
2023-05-09T08:40:29.078Z,3.550
2023-05-09T08:41:24.005Z,3.900
2023-05-09T08:42:26.560Z,3.250
2023-05-09T08:43:23.415Z,3.200
2023-05-09T08:44:25.187Z,3.400
2023-05-09T08:45:21.401Z,2.450
2023-05-09T08:46:31.665Z,2.300
2023-05-09T08:47:29.302Z,2.950
2023-05-09T08:48:23.248Z,3.300
2023-05-09T08:49:28.475Z,3.700
2023-05-09T08:50:20.692Z,1.850
2023-05-09T08:51:25.129Z,3.500
2023-05-09T08:52:21.276Z,3.450
2023-05-09T08:53:30.942Z,2.500
2023-05-09T08:54:29.026Z,2.600
2023-05-09T08:55:23.517Z,2.600
2023-05-09T08:56:32.987Z,3.300
2023-05-09T08:57:26.256Z,3.300
2023-05-09T08:58:25.184Z,3.250
2023-05-09T08:59:21.274Z,2.900
2023-05-09T09:00:32.352Z,3.850
2023-05-09T09:01:27.512Z,3.200
2023-05-09T09:02:23.820Z,3.900
2023-05-09T09:03:36.569Z,3.300
2023-05-09T09:04:29.054Z,4.200
2023-05-09T09:05:39.872Z,3.350
2023-05-09T09:06:21.678Z,3.450
2023-05-09T09:07:31.528Z,2.600
2023-05-09T09:08:29.004Z,3.300
2023-05-09T09:09:23.028Z,3.400
2023-05-09T09:10:33.297Z,3.800
2023-05-09T09:11:34.142Z,2.700
2023-05-09T09:12:25.602Z,2.850
2023-05-09T09:13:22.319Z,2.300
2023-05-09T09:14:31.350Z,3.600
2023-05-09T09:15:28.432Z,2.400
2023-05-09T09:16:23.107Z,3.400
2023-05-09T09:17:33.439Z,2.200
2023-05-09T09:18:30.918Z,3.300
2023-05-09T09:19:21.353Z,3.300
2023-05-09T09:20:22.719Z,4.450
2023-05-09T09:21:22.936Z,3.050
2023-05-09T09:22:31.045Z,2.000
2023-05-09T09:23:23.090Z,3.550
2023-05-09T09:24:32.931Z,3.700
2023-05-09T09:25:27.342Z,3.350
2023-05-09T09:26:25.229Z,3.900
2023-05-09T09:27:21.462Z,3.000
2023-05-09T09:28:26.810Z,3.050
2023-05-09T09:29:20.040Z,3.550
2023-05-09T09:30:23.025Z,2.800
2023-05-09T09:31:34.886Z,3.050
2023-05-09T09:32:30.001Z,2.700
2023-05-09T09:33:26.960Z,2.650
2023-05-09T09:34:21.507Z,3.650
2023-05-09T09:35:23.378Z,2.700
2023-05-09T09:36:24.182Z,2.900
2023-05-09T09:37:23.608Z,6.750
2023-05-09T09:38:33.132Z,3.200
2023-05-09T09:39:30.552Z,2.500
2023-05-09T09:40:25.142Z,2.700
2023-05-09T09:41:23.023Z,2.300
2023-05-09T09:42:29.681Z,2.450
2023-05-09T09:43:20.430Z,3.350
2023-05-09T09:44:24.038Z,3.200
2023-05-09T09:45:35.970Z,2.400
2023-05-09T09:46:30.287Z,2.800
2023-05-09T09:47:21.250Z,3.100
2023-05-09T09:48:21.348Z,2.750
2023-05-09T09:49:39.518Z,2.100
2023-05-09T09:50:27.212Z,2.550
2023-05-09T09:51:26.365Z,3.400
2023-05-09T09:52:34.955Z,3.750
2023-05-09T09:53:26.273Z,3.150
2023-05-09T09:54:26.895Z,2.600
2023-05-09T09:55:21.357Z,2.350
2023-05-09T09:56:31.128Z,2.200
2023-05-09T09:57:28.774Z,2.200
2023-05-09T09:58:23.354Z,2.400
2023-05-09T09:59:25.165Z,1.900
2023-05-09T10:00:30.017Z,3.700
2023-05-09T10:01:25.254Z,3.100
2023-05-09T10:02:22.658Z,2.000
2023-05-09T10:03:32.945Z,2.250
2023-05-09T10:04:22.646Z,2.200
2023-05-09T10:05:25.315Z,1.950
2023-05-09T10:06:27.294Z,2.550
2023-05-09T10:07:22.295Z,5.300
2023-05-09T10:08:25.889Z,2.900
2023-05-09T10:09:21.250Z,3.100
2023-05-09T10:10:28.364Z,2.950
2023-05-09T10:11:27.078Z,3.000
2023-05-09T10:12:23.883Z,4.300
2023-05-09T10:13:22.431Z,2.600
2023-05-09T10:14:24.247Z,2.200
2023-05-09T10:15:25.726Z,2.350
2023-05-09T10:16:25.932Z,3.200
2023-05-09T10:17:31.977Z,2.250
2023-05-09T10:18:28.277Z,2.900
2023-05-09T10:19:23.144Z,2.100
2023-05-09T10:20:26.526Z,1.750
2023-05-09T10:21:24.509Z,2.200
2023-05-09T10:22:21.437Z,2.650
2023-05-09T10:23:21.264Z,1.600
2023-05-09T10:24:33.424Z,3.150
2023-05-09T10:25:27.046Z,1.800
2023-05-09T10:26:23.099Z,2.200
2023-05-09T10:27:33.903Z,2.100
2023-05-09T10:28:23.653Z,1.650
2023-05-09T10:29:25.665Z,2.000
2023-05-09T10:30:21.060Z,2.150
2023-05-09T10:31:31.499Z,2.600
2023-05-09T10:32:22.458Z,1.550
2023-05-09T10:33:23.507Z,2.250
2023-05-09T10:34:34.464Z,3.200
2023-05-09T10:35:29.044Z,2.500
2023-05-09T10:36:20.270Z,1.900
2023-05-09T10:37:23.942Z,2.800
2023-05-09T10:38:28.029Z,2.450
2023-05-09T10:39:28.338Z,2.050
2023-05-09T10:40:24.391Z,1.800
2023-05-09T10:41:34.346Z,3.600
2023-05-09T10:42:31.456Z,2.350
2023-05-09T10:43:25.486Z,2.600
2023-05-09T10:44:21.000Z,1.900
2023-05-09T10:45:20.432Z,2.500
2023-05-09T10:46:28.838Z,1.800
2023-05-09T10:47:23.712Z,2.400
2023-05-09T10:48:33.239Z,1.900
2023-05-09T10:49:22.988Z,2.000
2023-05-09T10:50:29.892Z,2.200
2023-05-09T10:51:31.409Z,2.900
2023-05-09T10:52:24.405Z,2.050
2023-05-09T10:53:27.227Z,3.600
2023-05-09T10:54:24.063Z,2.350
2023-05-09T10:55:27.838Z,1.900
2023-05-09T10:56:29.229Z,2.050
2023-05-09T10:57:25.372Z,1.900
2023-05-09T10:58:22.925Z,1.800
2023-05-09T10:59:31.147Z,2.400
2023-05-09T11:00:21.550Z,1.800
2023-05-09T11:01:23.387Z,2.100
2023-05-09T11:02:34.285Z,2.000
2023-05-09T11:03:29.772Z,4.200
2023-05-09T11:04:26.470Z,2.450
2023-05-09T11:05:21.329Z,3.600
2023-05-09T11:06:22.986Z,2.200
2023-05-09T11:07:27.228Z,2.050
2023-05-09T11:08:23.292Z,2.200
2023-05-09T11:09:35.665Z,2.100
2023-05-09T11:10:29.212Z,2.550
2023-05-09T11:11:25.301Z,2.500
2023-05-09T11:12:22.917Z,2.150
2023-05-09T11:13:26.355Z,2.200
2023-05-09T11:14:29.712Z,3.800
2023-05-09T11:15:23.405Z,2.900
2023-05-09T11:16:35.648Z,1.900
2023-05-09T11:17:22.537Z,1.800
2023-05-09T11:18:26.612Z,2.550
2023-05-09T11:19:21.252Z,2.650
2023-05-09T11:20:31.310Z,2.000
2023-05-09T11:21:23.507Z,2.650
2023-05-09T11:22:23.249Z,10.000
2023-05-09T11:23:20.345Z,2.350
2023-05-09T11:24:29.875Z,2.200
2023-05-09T11:25:25.208Z,1.700
2023-05-09T11:26:22.430Z,2.900
2023-05-09T11:27:35.723Z,2.800
2023-05-09T11:28:38.045Z,2.200
2023-05-09T11:29:20.129Z,1.850
2023-05-09T11:30:24.517Z,3.300
2023-05-09T11:31:29.109Z,2.700
2023-05-09T11:32:25.090Z,2.350
2023-05-09T11:33:21.359Z,2.200
2023-05-09T11:34:24.278Z,2.150
2023-05-09T11:35:28.181Z,2.450
2023-05-09T11:36:24.892Z,2.400
2023-05-09T11:37:30.233Z,2.250
2023-05-09T11:38:21.563Z,3.500
2023-05-09T11:39:25.043Z,4.100
2023-05-09T11:40:21.151Z,2.200
2023-05-09T11:41:31.331Z,2.900
2023-05-09T11:42:28.744Z,2.500
2023-05-09T11:43:23.199Z,2.700
2023-05-09T11:44:22.602Z,2.500
2023-05-09T11:45:20.725Z,2.400
2023-05-09T11:46:25.655Z,2.300
2023-05-09T11:47:37.264Z,3.300
2023-05-09T11:48:31.276Z,3.200
2023-05-09T11:49:27.504Z,2.100
2023-05-09T11:50:23.552Z,1.900
2023-05-09T11:51:25.948Z,2.350
2023-05-09T11:52:29.992Z,2.200
2023-05-09T11:53:25.419Z,2.100
2023-05-09T11:54:21.450Z,2.750
2023-05-09T11:55:33.506Z,3.900
2023-05-09T11:56:27.382Z,2.050
2023-05-09T11:57:24.658Z,2.100
2023-05-09T11:58:29.469Z,2.150
2023-05-09T11:59:22.386Z,2.500
2023-05-09T12:00:27.142Z,2.550
2023-05-09T12:01:22.092Z,2.300
2023-05-09T12:02:23.802Z,2.750
2023-05-09T12:03:27.488Z,2.800
2023-05-09T12:04:23.365Z,2.900
2023-05-09T12:05:32.952Z,1.900
2023-05-09T12:06:29.250Z,1.750
2023-05-09T12:07:25.678Z,2.300
2023-05-09T12:08:25.851Z,2.450
2023-05-09T12:09:32.017Z,2.600
2023-05-09T12:10:27.183Z,2.900
2023-05-09T12:11:23.455Z,3.000
2023-05-09T12:12:33.758Z,1.600
2023-05-09T12:13:20.991Z,2.150
2023-05-09T12:14:24.994Z,2.650
2023-05-09T12:15:22.104Z,1.900
2023-05-09T12:16:24.242Z,2.850
2023-05-09T12:17:27.306Z,2.700
2023-05-09T12:18:23.409Z,3.400
2023-05-09T12:19:26.798Z,2.550
2023-05-09T12:20:29.876Z,3.050
2023-05-09T12:21:25.273Z,3.300
2023-05-09T12:22:21.272Z,3.450
2023-05-09T12:23:26.534Z,2.400
2023-05-09T12:24:29.019Z,2.550
2023-05-09T12:25:24.622Z,2.650
2023-05-09T12:26:33.211Z,2.300
2023-05-09T12:27:30.405Z,2.200
2023-05-09T12:28:25.117Z,2.300
2023-05-09T12:29:25.918Z,2.500
2023-05-09T12:30:23.295Z,2.700
2023-05-09T12:31:23.172Z,3.000
2023-05-09T12:32:24.050Z,2.800
2023-05-09T12:33:33.471Z,2.350
2023-05-09T12:34:31.504Z,2.100
2023-05-09T12:35:25.245Z,2.900
2023-05-09T12:36:23.810Z,2.550
2023-05-09T12:37:22.662Z,2.200
2023-05-09T12:38:26.764Z,1.900
2023-05-09T12:39:20.129Z,2.250
2023-05-09T12:40:33.430Z,2.100
2023-05-09T12:41:39.120Z,2.450
2023-05-09T12:42:24.778Z,1.600
2023-05-09T12:43:21.317Z,1.500
2023-05-09T12:44:25.221Z,2.250
2023-05-09T12:45:27.329Z,3.400
2023-05-09T12:46:24.468Z,2.800
2023-05-09T12:47:25.476Z,3.150
2023-05-09T12:48:30.897Z,3.100
2023-05-09T12:49:25.916Z,3.200
2023-05-09T12:50:23.018Z,3.000
2023-05-09T12:51:31.056Z,3.550
2023-05-09T12:52:23.185Z,2.100
2023-05-09T12:53:22.715Z,1.950
2023-05-09T12:54:22.043Z,1.950
2023-05-09T12:55:29.358Z,1.800
2023-05-09T12:56:25.865Z,2.500
2023-05-09T12:57:23.419Z,1.900